sensor_id;sensor_type;location;lat;lon;timestamp;pressure;altitude;pressure_sealevel;temperature;humidity
13235;BME280;6683;48.506;9.050;2024-02-26T00:02:26;96207.13;;;8.81;48.42
13235;BME280;6683;48.506;9.050;2024-02-26T00:05:28;96200.97;;;8.87;48.56
13235;BME280;6683;48.506;9.050;2024-02-26T00:08:32;96196.09;;;8.91;48.43
13235;BME280;6683;48.506;9.050;2024-02-26T00:11:36;96192.56;;;8.97;48.41
13235;BME280;6683;48.506;9.050;2024-02-26T00:14:39;96202.38;;;9.01;48.60
13235;BME280;6683;48.506;9.050;2024-02-26T00:17:42;96197.28;;;9.06;48.46
13235;BME280;6683;48.506;9.050;2024-02-26T00:20:44;96189.50;;;9.11;48.16
13235;BME280;6683;48.506;9.050;2024-02-26T00:23:46;96187.22;;;9.15;48.48
13235;BME280;6683;48.506;9.050;2024-02-26T00:26:48;96195.44;;;9.18;48.35
13235;BME280;6683;48.506;9.050;2024-02-26T00:29:55;96190.56;;;9.22;48.35
13235;BME280;6683;48.506;9.050;2024-02-26T00:32:57;96189.28;;;9.24;48.37
13235;BME280;6683;48.506;9.050;2024-02-26T00:35:59;96187.59;;;9.30;48.46
13235;BME280;6683;48.506;9.050;2024-02-26T00:39:02;96184.28;;;9.34;48.43
13235;BME280;6683;48.506;9.050;2024-02-26T00:42:04;96179.59;;;9.36;48.38
13235;BME280;6683;48.506;9.050;2024-02-26T00:45:09;96180.94;;;9.39;48.21
13235;BME280;6683;48.506;9.050;2024-02-26T00:48:11;96186.78;;;9.41;48.17
13235;BME280;6683;48.506;9.050;2024-02-26T00:51:14;96179.47;;;9.43;48.33
13235;BME280;6683;48.506;9.050;2024-02-26T00:54:17;96187.72;;;9.46;48.11
13235;BME280;6683;48.506;9.050;2024-02-26T00:57:19;96192.75;;;9.48;48.35
13235;BME280;6683;48.506;9.050;2024-02-26T01:00:22;96193.56;;;9.48;48.65
13235;BME280;6683;48.506;9.050;2024-02-26T01:03:25;96207.53;;;9.49;48.66
13235;BME280;6683;48.506;9.050;2024-02-26T01:06:27;96216.00;;;9.51;48.29
13235;BME280;6683;48.506;9.050;2024-02-26T01:09:29;96223.34;;;9.49;48.62
13235;BME280;6683;48.506;9.050;2024-02-26T01:12:32;96215.88;;;9.46;48.51
13235;BME280;6683;48.506;9.050;2024-02-26T01:15:36;96210.94;;;9.38;48.65
13235;BME280;6683;48.506;9.050;2024-02-26T01:18:38;96222.38;;;9.32;48.82
13235;BME280;6683;48.506;9.050;2024-02-26T01:21:40;96225.94;;;9.26;48.67
13235;BME280;6683;48.506;9.050;2024-02-26T01:24:42;96220.53;;;9.21;48.98
13235;BME280;6683;48.506;9.050;2024-02-26T01:27:45;96239.19;;;9.19;49.04
13235;BME280;6683;48.506;9.050;2024-02-26T01:30:48;96230.91;;;9.16;49.38
13235;BME280;6683;48.506;9.050;2024-02-26T01:33:50;96220.38;;;9.16;49.03
13235;BME280;6683;48.506;9.050;2024-02-26T01:36:53;96216.75;;;9.17;49.16
13235;BME280;6683;48.506;9.050;2024-02-26T01:39:56;96222.00;;;9.17;49.40
13235;BME280;6683;48.506;9.050;2024-02-26T01:42:59;96208.28;;;9.15;49.46
13235;BME280;6683;48.506;9.050;2024-02-26T01:46:03;96196.34;;;9.12;49.52
13235;BME280;6683;48.506;9.050;2024-02-26T01:49:06;96188.94;;;9.09;49.47
13235;BME280;6683;48.506;9.050;2024-02-26T01:52:10;96249.47;;;9.09;49.63
13235;BME280;6683;48.506;9.050;2024-02-26T01:55:13;96248.66;;;9.09;49.79
13235;BME280;6683;48.506;9.050;2024-02-26T01:58:16;96237.88;;;9.10;49.99
13235;BME280;6683;48.506;9.050;2024-02-26T02:01:21;96237.22;;;9.15;49.93
13235;BME280;6683;48.506;9.050;2024-02-26T02:04:24;96265.13;;;9.16;49.76
13235;BME280;6683;48.506;9.050;2024-02-26T02:07:27;96262.28;;;9.17;50.05
13235;BME280;6683;48.506;9.050;2024-02-26T02:10:29;96264.47;;;9.20;49.80
13235;BME280;6683;48.506;9.050;2024-02-26T02:13:32;96256.13;;;9.23;49.78
13235;BME280;6683;48.506;9.050;2024-02-26T02:16:35;96241.47;;;9.27;49.84
13235;BME280;6683;48.506;9.050;2024-02-26T02:19:38;96235.06;;;9.35;49.80
13235;BME280;6683;48.506;9.050;2024-02-26T02:22:41;96232.25;;;9.36;49.59
13235;BME280;6683;48.506;9.050;2024-02-26T02:25:43;96226.50;;;9.39;49.85
13235;BME280;6683;48.506;9.050;2024-02-26T02:28:46;96222.06;;;9.40;49.68
13235;BME280;6683;48.506;9.050;2024-02-26T02:31:49;96204.44;;;9.40;49.91
13235;BME280;6683;48.506;9.050;2024-02-26T02:34:52;96237.63;;;9.41;49.83
13235;BME280;6683;48.506;9.050;2024-02-26T02:37:57;96234.16;;;9.41;50.10
13235;BME280;6683;48.506;9.050;2024-02-26T02:40:59;96246.31;;;9.42;50.08
13235;BME280;6683;48.506;9.050;2024-02-26T02:44:01;96237.38;;;9.43;49.83
13235;BME280;6683;48.506;9.050;2024-02-26T02:47:04;96247.91;;;9.43;49.97
13235;BME280;6683;48.506;9.050;2024-02-26T02:50:07;96239.44;;;9.41;50.24
13235;BME280;6683;48.506;9.050;2024-02-26T02:53:10;96236.03;;;9.40;50.32
13235;BME280;6683;48.506;9.050;2024-02-26T02:56:12;96244.50;;;9.42;50.03
13235;BME280;6683;48.506;9.050;2024-02-26T02:59:15;96231.34;;;9.42;50.01
13235;BME280;6683;48.506;9.050;2024-02-26T03:02:17;96210.47;;;9.41;50.15
13235;BME280;6683;48.506;9.050;2024-02-26T03:05:19;96207.84;;;9.41;50.14
13235;BME280;6683;48.506;9.050;2024-02-26T03:08:23;96208.09;;;9.39;50.23
13235;BME280;6683;48.506;9.050;2024-02-26T03:11:26;96204.44;;;9.40;50.33
13235;BME280;6683;48.506;9.050;2024-02-26T03:14:28;96205.22;;;9.41;50.40
13235;BME280;6683;48.506;9.050;2024-02-26T03:17:31;96187.81;;;9.40;50.56
13235;BME280;6683;48.506;9.050;2024-02-26T03:20:33;96175.91;;;9.37;50.49
13235;BME280;6683;48.506;9.050;2024-02-26T03:23:37;96172.47;;;9.37;50.70
13235;BME280;6683;48.506;9.050;2024-02-26T03:26:39;96187.25;;;9.38;50.65
13235;BME280;6683;48.506;9.050;2024-02-26T03:29:41;96196.97;;;9.37;50.73
13235;BME280;6683;48.506;9.050;2024-02-26T03:32:43;96188.28;;;9.37;50.68
13235;BME280;6683;48.506;9.050;2024-02-26T03:35:45;96192.28;;;9.39;50.79
13235;BME280;6683;48.506;9.050;2024-02-26T03:38:49;96193.91;;;9.40;50.82
13235;BME280;6683;48.506;9.050;2024-02-26T03:41:51;96184.38;;;9.39;50.86
13235;BME280;6683;48.506;9.050;2024-02-26T03:44:54;96173.63;;;9.41;50.71
13235;BME280;6683;48.506;9.050;2024-02-26T03:47:56;96174.19;;;9.43;50.69
13235;BME280;6683;48.506;9.050;2024-02-26T03:50:58;96182.69;;;9.45;50.62
13235;BME280;6683;48.506;9.050;2024-02-26T03:54:01;96181.66;;;9.46;50.82
13235;BME280;6683;48.506;9.050;2024-02-26T03:57:04;96191.75;;;9.49;50.83
13235;BME280;6683;48.506;9.050;2024-02-26T04:00:07;96206.50;;;9.50;50.84
13235;BME280;6683;48.506;9.050;2024-02-26T04:03:10;96203.06;;;9.49;50.94
13235;BME280;6683;48.506;9.050;2024-02-26T04:06:12;96226.97;;;9.48;50.82
13235;BME280;6683;48.506;9.050;2024-02-26T04:09:16;96217.94;;;9.44;51.14
13235;BME280;6683;48.506;9.050;2024-02-26T04:12:18;96228.13;;;9.40;51.12
13235;BME280;6683;48.506;9.050;2024-02-26T04:15:20;96229.81;;;9.35;51.27
13235;BME280;6683;48.506;9.050;2024-02-26T04:18:23;96240.00;;;9.31;51.08
13235;BME280;6683;48.506;9.050;2024-02-26T04:21:25;96222.47;;;9.25;51.15
13235;BME280;6683;48.506;9.050;2024-02-26T04:24:29;96213.19;;;9.23;51.50
13235;BME280;6683;48.506;9.050;2024-02-26T04:27:31;96206.13;;;9.23;51.30
13235;BME280;6683;48.506;9.050;2024-02-26T04:30:33;96204.50;;;9.22;51.21
13235;BME280;6683;48.506;9.050;2024-02-26T04:33:36;96197.41;;;9.23;51.58
13235;BME280;6683;48.506;9.050;2024-02-26T04:36:38;96199.03;;;9.24;51.58
13235;BME280;6683;48.506;9.050;2024-02-26T04:39:41;96196.41;;;9.24;51.46
13235;BME280;6683;48.506;9.050;2024-02-26T04:42:43;96185.88;;;9.24;51.74
13235;BME280;6683;48.506;9.050;2024-02-26T04:45:46;96186.66;;;9.24;51.48
13235;BME280;6683;48.506;9.050;2024-02-26T04:48:48;96190.09;;;9.25;51.81
13235;BME280;6683;48.506;9.050;2024-02-26T04:51:50;96193.28;;;9.27;51.89
13235;BME280;6683;48.506;9.050;2024-02-26T04:54:54;96187.59;;;9.30;51.85
13235;BME280;6683;48.506;9.050;2024-02-26T04:57:56;96198.47;;;9.33;51.56
13235;BME280;6683;48.506;9.050;2024-02-26T05:00:58;96205.09;;;9.36;51.78
13235;BME280;6683;48.506;9.050;2024-02-26T05:04:01;96210.72;;;9.39;51.73
13235;BME280;6683;48.506;9.050;2024-02-26T05:07:04;96224.22;;;9.43;51.91
13235;BME280;6683;48.506;9.050;2024-02-26T05:10:08;96248.50;;;9.45;51.71
13235;BME280;6683;48.506;9.050;2024-02-26T05:13:10;96250.91;;;9.46;51.73
13235;BME280;6683;48.506;9.050;2024-02-26T05:16:12;96254.56;;;9.45;51.99
13235;BME280;6683;48.506;9.050;2024-02-26T05:19:15;96251.59;;;9.42;51.94
13235;BME280;6683;48.506;9.050;2024-02-26T05:22:17;96269.88;;;9.37;51.97
13235;BME280;6683;48.506;9.050;2024-02-26T05:25:20;96255.00;;;9.31;52.20
13235;BME280;6683;48.506;9.050;2024-02-26T05:28:23;96242.06;;;9.29;52.22
13235;BME280;6683;48.506;9.050;2024-02-26T05:31:26;96234.41;;;9.28;52.46
13235;BME280;6683;48.506;9.050;2024-02-26T05:34:29;96236.22;;;9.27;52.47
13235;BME280;6683;48.506;9.050;2024-02-26T05:37:32;96229.34;;;9.26;52.69
13235;BME280;6683;48.506;9.050;2024-02-26T05:40:38;96245.38;;;9.25;52.54
13235;BME280;6683;48.506;9.050;2024-02-26T05:43:41;96251.88;;;9.22;52.55
13235;BME280;6683;48.506;9.050;2024-02-26T05:46:43;96251.53;;;9.19;52.63
13235;BME280;6683;48.506;9.050;2024-02-26T05:49:45;96250.16;;;9.16;52.61
13235;BME280;6683;48.506;9.050;2024-02-26T05:52:48;96260.31;;;9.13;52.80
13235;BME280;6683;48.506;9.050;2024-02-26T05:55:53;96259.41;;;9.07;52.74
13235;BME280;6683;48.506;9.050;2024-02-26T05:58:55;96264.53;;;9.02;52.88
13235;BME280;6683;48.506;9.050;2024-02-26T06:01:57;96271.25;;;8.98;52.81
13235;BME280;6683;48.506;9.050;2024-02-26T06:04:59;96275.94;;;8.96;52.77
13235;BME280;6683;48.506;9.050;2024-02-26T06:08:01;96262.44;;;8.93;52.96
13235;BME280;6683;48.506;9.050;2024-02-26T06:11:07;96268.72;;;8.92;53.22
13235;BME280;6683;48.506;9.050;2024-02-26T06:14:09;96260.66;;;8.86;53.21
13235;BME280;6683;48.506;9.050;2024-02-26T06:17:13;96277.94;;;8.82;53.19
13235;BME280;6683;48.506;9.050;2024-02-26T06:20:16;96263.03;;;8.76;53.24
13235;BME280;6683;48.506;9.050;2024-02-26T06:23:18;96295.06;;;8.73;53.32
13235;BME280;6683;48.506;9.050;2024-02-26T06:26:22;96304.41;;;8.69;53.44
13235;BME280;6683;48.506;9.050;2024-02-26T06:29:24;96302.78;;;8.68;53.52
13235;BME280;6683;48.506;9.050;2024-02-26T06:32:26;96312.50;;;8.68;53.70
13235;BME280;6683;48.506;9.050;2024-02-26T06:35:30;96319.38;;;8.69;53.72
13235;BME280;6683;48.506;9.050;2024-02-26T06:38:32;96332.53;;;8.69;53.90
13235;BME280;6683;48.506;9.050;2024-02-26T06:41:35;96327.03;;;8.70;54.03
13235;BME280;6683;48.506;9.050;2024-02-26T06:44:39;96328.78;;;8.76;54.05
13235;BME280;6683;48.506;9.050;2024-02-26T06:47:41;96328.94;;;8.81;54.15
13235;BME280;6683;48.506;9.050;2024-02-26T06:50:44;96328.06;;;8.88;53.99
13235;BME280;6683;48.506;9.050;2024-02-26T06:53:46;96334.06;;;8.95;54.09
13235;BME280;6683;48.506;9.050;2024-02-26T06:56:49;96337.63;;;9.00;54.16
13235;BME280;6683;48.506;9.050;2024-02-26T06:59:52;96333.50;;;9.04;54.16
13235;BME280;6683;48.506;9.050;2024-02-26T07:02:54;96323.91;;;9.10;54.19
13235;BME280;6683;48.506;9.050;2024-02-26T07:05:56;96337.47;;;9.13;54.12
13235;BME280;6683;48.506;9.050;2024-02-26T07:08:58;96336.19;;;9.16;54.08
13235;BME280;6683;48.506;9.050;2024-02-26T07:12:03;96352.78;;;9.16;54.33
13235;BME280;6683;48.506;9.050;2024-02-26T07:15:06;96347.09;;;9.19;54.46
13235;BME280;6683;48.506;9.050;2024-02-26T07:18:08;96359.78;;;9.22;54.36
13235;BME280;6683;48.506;9.050;2024-02-26T07:21:12;96374.34;;;9.25;54.66
13235;BME280;6683;48.506;9.050;2024-02-26T07:24:14;96357.31;;;9.27;54.66
13235;BME280;6683;48.506;9.050;2024-02-26T07:27:18;96370.81;;;9.31;54.39
13235;BME280;6683;48.506;9.050;2024-02-26T07:30:22;96368.56;;;9.34;54.63
13235;BME280;6683;48.506;9.050;2024-02-26T07:33:25;96360.56;;;9.41;54.70
13235;BME280;6683;48.506;9.050;2024-02-26T07:36:27;96365.97;;;9.46;54.96
13235;BME280;6683;48.506;9.050;2024-02-26T07:39:30;96365.28;;;9.50;54.69
13235;BME280;6683;48.506;9.050;2024-02-26T07:42:33;96350.66;;;9.54;54.92
13235;BME280;6683;48.506;9.050;2024-02-26T07:45:35;96366.59;;;9.59;54.92
13235;BME280;6683;48.506;9.050;2024-02-26T07:48:38;96371.16;;;9.64;54.97
13235;BME280;6683;48.506;9.050;2024-02-26T07:51:40;96371.31;;;9.69;55.05
13235;BME280;6683;48.506;9.050;2024-02-26T07:54:43;96369.38;;;9.76;54.82
13235;BME280;6683;48.506;9.050;2024-02-26T07:57:46;96364.81;;;9.83;54.93
13235;BME280;6683;48.506;9.050;2024-02-26T08:00:48;96361.84;;;9.91;54.91
13235;BME280;6683;48.506;9.050;2024-02-26T08:03:50;96354.06;;;9.96;55.24
13235;BME280;6683;48.506;9.050;2024-02-26T08:06:52;96351.53;;;10.01;55.30
13235;BME280;6683;48.506;9.050;2024-02-26T08:09:54;96350.06;;;10.05;55.29
13235;BME280;6683;48.506;9.050;2024-02-26T08:12:58;96354.22;;;10.13;55.27
13235;BME280;6683;48.506;9.050;2024-02-26T08:16:06;96349.66;;;10.20;54.82
13235;BME280;6683;48.506;9.050;2024-02-26T08:19:08;96350.34;;;10.27;54.85
13235;BME280;6683;48.506;9.050;2024-02-26T08:22:12;96344.13;;;10.33;55.06
13235;BME280;6683;48.506;9.050;2024-02-26T08:25:16;96342.44;;;10.38;54.72
13235;BME280;6683;48.506;9.050;2024-02-26T08:28:20;96340.38;;;10.40;54.68
13235;BME280;6683;48.506;9.050;2024-02-26T08:31:22;96332.34;;;10.47;54.66
13235;BME280;6683;48.506;9.050;2024-02-26T08:34:25;96338.53;;;10.53;54.68
13235;BME280;6683;48.506;9.050;2024-02-26T08:37:27;96341.84;;;10.60;54.60
13235;BME280;6683;48.506;9.050;2024-02-26T08:40:29;96337.22;;;10.67;54.53
13235;BME280;6683;48.506;9.050;2024-02-26T08:43:32;96329.44;;;10.72;54.49
13235;BME280;6683;48.506;9.050;2024-02-26T08:46:35;96327.13;;;10.75;54.28
13235;BME280;6683;48.506;9.050;2024-02-26T08:49:37;96326.19;;;10.81;54.42
13235;BME280;6683;48.506;9.050;2024-02-26T08:52:43;96329.16;;;10.85;54.22
13235;BME280;6683;48.506;9.050;2024-02-26T08:55:49;96324.22;;;10.88;54.58
13235;BME280;6683;48.506;9.050;2024-02-26T08:58:54;96326.19;;;10.93;54.09
13235;BME280;6683;48.506;9.050;2024-02-26T09:01:58;96333.16;;;10.99;54.15
13235;BME280;6683;48.506;9.050;2024-02-26T09:05:00;96333.03;;;11.05;54.10
13235;BME280;6683;48.506;9.050;2024-02-26T09:08:03;96338.16;;;11.12;54.40
13235;BME280;6683;48.506;9.050;2024-02-26T09:11:05;96340.66;;;11.18;54.52
13235;BME280;6683;48.506;9.050;2024-02-26T09:14:08;96345.56;;;11.26;54.22
13235;BME280;6683;48.506;9.050;2024-02-26T09:17:11;96331.19;;;11.34;54.22
13235;BME280;6683;48.506;9.050;2024-02-26T09:20:13;96337.69;;;11.43;54.61
13235;BME280;6683;48.506;9.050;2024-02-26T09:23:16;96327.22;;;11.48;54.38
13235;BME280;6683;48.506;9.050;2024-02-26T09:26:18;96328.66;;;11.56;54.19
13235;BME280;6683;48.506;9.050;2024-02-26T09:29:21;96332.78;;;11.63;54.33
13235;BME280;6683;48.506;9.050;2024-02-26T09:32:23;96343.22;;;11.70;54.01
13235;BME280;6683;48.506;9.050;2024-02-26T09:35:26;96347.31;;;11.77;54.13
13235;BME280;6683;48.506;9.050;2024-02-26T09:38:28;96352.03;;;11.92;54.29
13235;BME280;6683;48.506;9.050;2024-02-26T09:41:31;96351.91;;;12.15;54.03
13235;BME280;6683;48.506;9.050;2024-02-26T09:44:36;96353.47;;;12.49;53.73
13235;BME280;6683;48.506;9.050;2024-02-26T09:47:42;96351.44;;;12.95;53.43
13235;BME280;6683;48.506;9.050;2024-02-26T09:50:45;96353.41;;;13.47;52.91
13235;BME280;6683;48.506;9.050;2024-02-26T09:53:48;96349.38;;;13.98;52.09
13235;BME280;6683;48.506;9.050;2024-02-26T09:56:55;96353.75;;;14.41;51.12
13235;BME280;6683;48.506;9.050;2024-02-26T10:00:04;96364.53;;;14.71;50.25
13235;BME280;6683;48.506;9.050;2024-02-26T10:03:12;96372.81;;;14.80;49.69
13235;BME280;6683;48.506;9.050;2024-02-26T10:06:16;96374.16;;;14.82;49.52
13235;BME280;6683;48.506;9.050;2024-02-26T10:09:18;96373.63;;;14.80;49.42
13235;BME280;6683;48.506;9.050;2024-02-26T10:12:22;96361.13;;;14.76;49.27
13235;BME280;6683;48.506;9.050;2024-02-26T10:15:30;96359.75;;;14.68;49.33
13235;BME280;6683;48.506;9.050;2024-02-26T10:18:46;96364.44;;;14.56;49.22
13235;BME280;6683;48.506;9.050;2024-02-26T10:21:48;96366.25;;;14.51;49.29
13235;BME280;6683;48.506;9.050;2024-02-26T10:24:50;96347.94;;;14.49;49.19
13235;BME280;6683;48.506;9.050;2024-02-26T10:27:52;96339.44;;;14.47;49.25
13235;BME280;6683;48.506;9.050;2024-02-26T10:30:56;96362.53;;;14.47;49.26
13235;BME280;6683;48.506;9.050;2024-02-26T10:33:58;96360.94;;;14.46;49.16
13235;BME280;6683;48.506;9.050;2024-02-26T10:37:01;96367.28;;;14.45;49.07
13235;BME280;6683;48.506;9.050;2024-02-26T10:40:06;96372.59;;;14.45;48.98
13235;BME280;6683;48.506;9.050;2024-02-26T10:43:08;96369.94;;;14.45;48.69
13235;BME280;6683;48.506;9.050;2024-02-26T10:46:11;96381.91;;;14.47;48.61
13235;BME280;6683;48.506;9.050;2024-02-26T10:49:15;96378.44;;;14.47;48.47
13235;BME280;6683;48.506;9.050;2024-02-26T10:52:19;96380.84;;;14.48;48.39
13235;BME280;6683;48.506;9.050;2024-02-26T10:55:22;96383.53;;;14.53;48.15
13235;BME280;6683;48.506;9.050;2024-02-26T10:58:25;96377.44;;;14.53;47.98
13235;BME280;6683;48.506;9.050;2024-02-26T11:01:29;96377.47;;;14.58;47.98
13235;BME280;6683;48.506;9.050;2024-02-26T11:04:33;96374.84;;;14.63;47.81
13235;BME280;6683;48.506;9.050;2024-02-26T11:07:35;96383.13;;;14.66;47.65
13235;BME280;6683;48.506;9.050;2024-02-26T11:10:38;96379.13;;;14.69;47.55
13235;BME280;6683;48.506;9.050;2024-02-26T11:13:43;96372.25;;;14.73;47.63
13235;BME280;6683;48.506;9.050;2024-02-26T11:16:50;96383.97;;;14.77;47.48
13235;BME280;6683;48.506;9.050;2024-02-26T11:19:55;96390.09;;;14.82;47.40
13235;BME280;6683;48.506;9.050;2024-02-26T11:23:03;96401.59;;;14.93;47.22
13235;BME280;6683;48.506;9.050;2024-02-26T11:26:05;96395.28;;;15.04;47.07
13235;BME280;6683;48.506;9.050;2024-02-26T11:29:09;96400.34;;;15.10;46.93
13235;BME280;6683;48.506;9.050;2024-02-26T11:32:13;96406.50;;;15.16;46.76
13235;BME280;6683;48.506;9.050;2024-02-26T11:35:16;96400.69;;;15.24;46.69
13235;BME280;6683;48.506;9.050;2024-02-26T11:38:21;96390.63;;;15.36;46.70
13235;BME280;6683;48.506;9.050;2024-02-26T11:41:23;96389.38;;;15.49;46.45
13235;BME280;6683;48.506;9.050;2024-02-26T11:44:31;96385.44;;;15.61;46.34
13235;BME280;6683;48.506;9.050;2024-02-26T11:47:35;96390.78;;;15.71;46.17
13235;BME280;6683;48.506;9.050;2024-02-26T11:50:43;96383.34;;;15.83;46.10
13235;BME280;6683;48.506;9.050;2024-02-26T11:53:47;96398.56;;;16.03;45.89
13235;BME280;6683;48.506;9.050;2024-02-26T11:56:50;96403.59;;;16.15;45.49
13235;BME280;6683;48.506;9.050;2024-02-26T11:59:53;96407.38;;;16.19;45.27
13235;BME280;6683;48.506;9.050;2024-02-26T12:02:56;96406.28;;;16.20;45.35
13235;BME280;6683;48.506;9.050;2024-02-26T12:06:02;96400.16;;;16.24;45.33
13235;BME280;6683;48.506;9.050;2024-02-26T12:09:04;96405.25;;;16.31;45.07
13235;BME280;6683;48.506;9.050;2024-02-26T12:12:08;96401.78;;;16.35;44.95
13235;BME280;6683;48.506;9.050;2024-02-26T12:15:11;96399.38;;;16.34;44.79
13235;BME280;6683;48.506;9.050;2024-02-26T12:18:18;96398.31;;;16.35;44.87
13235;BME280;6683;48.506;9.050;2024-02-26T12:21:21;96400.16;;;16.34;44.95
13235;BME280;6683;48.506;9.050;2024-02-26T12:24:23;96398.03;;;16.36;44.71
13235;BME280;6683;48.506;9.050;2024-02-26T12:27:25;96397.53;;;16.39;44.71
13235;BME280;6683;48.506;9.050;2024-02-26T12:30:27;96397.22;;;16.46;44.60
13235;BME280;6683;48.506;9.050;2024-02-26T12:33:31;96389.56;;;16.49;44.25
13235;BME280;6683;48.506;9.050;2024-02-26T12:36:34;96389.53;;;16.54;44.08
13235;BME280;6683;48.506;9.050;2024-02-26T12:39:37;96390.06;;;16.56;44.23
13235;BME280;6683;48.506;9.050;2024-02-26T12:42:40;96380.75;;;16.59;44.32
13235;BME280;6683;48.506;9.050;2024-02-26T12:45:43;96394.88;;;16.59;44.15
13235;BME280;6683;48.506;9.050;2024-02-26T12:48:48;96393.53;;;16.57;43.95
13235;BME280;6683;48.506;9.050;2024-02-26T12:51:51;96396.19;;;16.57;44.25
13235;BME280;6683;48.506;9.050;2024-02-26T12:54:53;96402.59;;;16.56;44.10
13235;BME280;6683;48.506;9.050;2024-02-26T12:57:55;96402.31;;;16.57;44.24
13235;BME280;6683;48.506;9.050;2024-02-26T13:00:57;96401.81;;;16.60;43.93
13235;BME280;6683;48.506;9.050;2024-02-26T13:04:01;96398.59;;;16.63;43.98
13235;BME280;6683;48.506;9.050;2024-02-26T13:07:07;96389.00;;;16.67;43.82
13235;BME280;6683;48.506;9.050;2024-02-26T13:10:09;96396.72;;;16.69;43.77
13235;BME280;6683;48.506;9.050;2024-02-26T13:13:15;96394.56;;;16.71;43.91
13235;BME280;6683;48.506;9.050;2024-02-26T13:16:18;96397.25;;;16.76;43.86
13235;BME280;6683;48.506;9.050;2024-02-26T13:19:21;96394.81;;;16.79;43.76
13235;BME280;6683;48.506;9.050;2024-02-26T13:22:24;96395.88;;;16.84;43.98
13235;BME280;6683;48.506;9.050;2024-02-26T13:25:26;96404.41;;;16.86;43.89
13235;BME280;6683;48.506;9.050;2024-02-26T13:28:28;96406.28;;;16.85;43.84
13235;BME280;6683;48.506;9.050;2024-02-26T13:31:30;96405.22;;;16.86;43.84
13235;BME280;6683;48.506;9.050;2024-02-26T13:34:33;96417.72;;;16.91;43.61
13235;BME280;6683;48.506;9.050;2024-02-26T13:37:36;96420.41;;;16.96;43.72
13235;BME280;6683;48.506;9.050;2024-02-26T13:40:40;96425.19;;;16.99;43.52
13235;BME280;6683;48.506;9.050;2024-02-26T13:43:42;96414.53;;;17.04;43.34
13235;BME280;6683;48.506;9.050;2024-02-26T13:46:45;96412.91;;;17.08;43.36
13235;BME280;6683;48.506;9.050;2024-02-26T13:49:48;96408.63;;;17.12;43.36
13235;BME280;6683;48.506;9.050;2024-02-26T13:52:51;96412.06;;;17.17;43.11
13235;BME280;6683;48.506;9.050;2024-02-26T13:55:54;96418.22;;;17.23;43.13
13235;BME280;6683;48.506;9.050;2024-02-26T13:58:59;96414.16;;;17.25;42.95
13235;BME280;6683;48.506;9.050;2024-02-26T14:02:01;96411.50;;;17.25;42.79
13235;BME280;6683;48.506;9.050;2024-02-26T14:05:06;96405.94;;;17.27;42.76
13235;BME280;6683;48.506;9.050;2024-02-26T14:08:08;96409.66;;;17.26;42.81
13235;BME280;6683;48.506;9.050;2024-02-26T14:11:11;96413.13;;;17.26;42.62
13235;BME280;6683;48.506;9.050;2024-02-26T14:14:13;96409.38;;;17.27;42.69
13235;BME280;6683;48.506;9.050;2024-02-26T14:17:16;96399.50;;;17.28;42.79
13235;BME280;6683;48.506;9.050;2024-02-26T14:20:20;96395.78;;;17.29;42.50
13235;BME280;6683;48.506;9.050;2024-02-26T14:23:22;96393.38;;;17.27;42.55
13235;BME280;6683;48.506;9.050;2024-02-26T14:26:24;96394.44;;;17.26;42.39
13235;BME280;6683;48.506;9.050;2024-02-26T14:29:26;96393.94;;;17.24;42.44
13235;BME280;6683;48.506;9.050;2024-02-26T14:32:28;96392.31;;;17.23;42.49
13235;BME280;6683;48.506;9.050;2024-02-26T14:35:31;96395.25;;;17.22;42.32
13235;BME280;6683;48.506;9.050;2024-02-26T14:38:33;96404.59;;;17.19;42.35
13235;BME280;6683;48.506;9.050;2024-02-26T14:41:35;96407.00;;;17.21;42.23
13235;BME280;6683;48.506;9.050;2024-02-26T14:44:37;96395.81;;;17.19;42.05
13235;BME280;6683;48.506;9.050;2024-02-26T14:47:39;96400.34;;;17.18;42.03
13235;BME280;6683;48.506;9.050;2024-02-26T14:50:43;96405.69;;;17.18;41.97
13235;BME280;6683;48.506;9.050;2024-02-26T14:53:45;96408.59;;;17.17;41.96
13235;BME280;6683;48.506;9.050;2024-02-26T14:56:47;96395.53;;;17.15;41.85
13235;BME280;6683;48.506;9.050;2024-02-26T14:59:50;96412.63;;;17.14;41.76
13235;BME280;6683;48.506;9.050;2024-02-26T15:02:52;96412.88;;;17.13;41.87
13235;BME280;6683;48.506;9.050;2024-02-26T15:05:56;96416.09;;;17.10;41.90
13235;BME280;6683;48.506;9.050;2024-02-26T15:08:58;96408.09;;;17.10;41.89
13235;BME280;6683;48.506;9.050;2024-02-26T15:12:01;96414.50;;;17.09;41.58
13235;BME280;6683;48.506;9.050;2024-02-26T15:15:04;96417.44;;;17.07;41.63
13235;BME280;6683;48.506;9.050;2024-02-26T15:18:06;96408.09;;;17.05;41.69
13235;BME280;6683;48.506;9.050;2024-02-26T15:21:14;96414.78;;;17.02;41.71
13235;BME280;6683;48.506;9.050;2024-02-26T15:24:19;96412.38;;;17.01;41.50
13235;BME280;6683;48.506;9.050;2024-02-26T15:27:22;96411.84;;;16.99;41.38
13235;BME280;6683;48.506;9.050;2024-02-26T15:30:24;96406.28;;;16.95;41.56
13235;BME280;6683;48.506;9.050;2024-02-26T15:33:28;96404.94;;;16.93;41.50
13235;BME280;6683;48.506;9.050;2024-02-26T15:36:31;96405.75;;;16.88;41.28
13235;BME280;6683;48.506;9.050;2024-02-26T15:39:33;96404.69;;;16.84;41.42
13235;BME280;6683;48.506;9.050;2024-02-26T15:42:39;96413.22;;;16.81;41.14
13235;BME280;6683;48.506;9.050;2024-02-26T15:45:41;96418.28;;;16.77;41.18
13235;BME280;6683;48.506;9.050;2024-02-26T15:48:43;96423.09;;;16.75;41.25
13235;BME280;6683;48.506;9.050;2024-02-26T15:51:47;96430.00;;;16.71;41.12
13235;BME280;6683;48.506;9.050;2024-02-26T15:54:53;96436.13;;;16.67;41.12
13235;BME280;6683;48.506;9.050;2024-02-26T15:57:56;96436.41;;;16.65;41.14
13235;BME280;6683;48.506;9.050;2024-02-26T16:00:58;96449.19;;;16.63;41.20
13235;BME280;6683;48.506;9.050;2024-02-26T16:04:00;96450.00;;;16.59;41.14
13235;BME280;6683;48.506;9.050;2024-02-26T16:07:05;96460.41;;;16.55;41.16
13235;BME280;6683;48.506;9.050;2024-02-26T16:10:13;96460.13;;;16.52;41.16
13235;BME280;6683;48.506;9.050;2024-02-26T16:13:15;96463.28;;;16.49;41.20
13235;BME280;6683;48.506;9.050;2024-02-26T16:16:20;96468.06;;;16.42;41.23
13235;BME280;6683;48.506;9.050;2024-02-26T16:19:25;96473.94;;;16.39;41.37
13235;BME280;6683;48.506;9.050;2024-02-26T16:22:29;96469.41;;;16.34;41.38
13235;BME280;6683;48.506;9.050;2024-02-26T16:25:33;96481.09;;;16.28;41.42
13235;BME280;6683;48.506;9.050;2024-02-26T16:28:35;96493.34;;;16.24;41.26
13235;BME280;6683;48.506;9.050;2024-02-26T16:31:37;96497.59;;;16.20;41.54